Alberta, Minnesota
Current Conditions -  °F | °C
As of 10:25 PM on Saturday 25 Oct 2014 (Local Time) from KMOX Reporting Station
Haze Haze  
Wind Chill: 39°   Ceiling: Unl
Heat Index: 39°   Visibility: 5mi
Dew Point: 28°   Wind: 0mph
Humidity: 65%   Direction: NA
Pressure: 30.04"   Gusts: NA
Location:  45.57°N, 96.05°W
Report Text: KMOX 260325Z AUTO 00000KT 5SM HZ CLR 04/M02 A3004 RMK AO2
Loading
Personal Weather Stations






























Interactive Weather Map
Tropical Storm Tracking
New forecast layout! Learn more

10-Day Weather Forecast

Advertisements
Track Severe Weather on mobile